aviador You're here:

UKDD Decoded Metar

DNEPROPETROVSK in UKRAINE
Report Time2018-07-20 19:30:00
UTC Time2018-07-20 20:03:15
Flight Rules vfr VFR
Wind270° at 4 kt
W.Decomp.*RWY 26: 4.0 kt HW 0.2 kt RCW
W.Rank270° ranks 9
Current wind is below 270° avg. (8.6)
Visibility9999 m
Phenomena:N/A
Clouds:N/A
Expected CloudBase > 400 ft AGL from Temp-Dew spread
CeilingNone
Temp19°C (ISA +5)
Dew Point18°C (94% RH)
QNH1004 hPa
Density Alt1,654 ft
Elevation489 ft
Report Wrong Elevation
Raw Report
UKDD 201930Z 27002MPS CAVOK 19/18 Q1004 R08/210360 NOSIG=

Extra information for UKDD:More info

Metar Taf Metar & Taf Last 4 Metars F.Rules Stats Wind Profile Meteogram Temp Stats Airport Information Weather charts Add Link Nearby VenuesMetar ALERT Operation Metar Decoded Social comments